Time;durP1;ratioP1;P1;durP2;ratioP2;P2;SDS_P1;SDS_P2;PMS_P1;PMS_P2;Temp;Humidity;BMP_temperature;BMP_pressure;BME280_temperature;BME280_humidity;BME280_pressure;Samples;Min_cycle;Max_cycle;Signal;HPM_P1;HPM_P2
2021/09/14 00:02:24;;;;;;;2.85;1.38;;;20.50;62.60;;;;;;4996450;28;20023;-62
2021/09/14 00:04:50;;;;;;;4.97;1.55;;;20.50;62.60;;;;;;4994968;28;20026;-62
2021/09/14 00:07:16;;;;;;;3.67;1.67;;;20.50;62.60;;;;;;4996163;28;20026;-62
2021/09/14 00:09:41;;;;;;;4.32;1.40;;;20.50;62.60;;;;;;4996081;28;20036;-62
2021/09/14 00:12:07;;;;;;;2.88;1.50;;;20.50;62.60;;;;;;4996275;28;20057;-62
2021/09/14 00:14:33;;;;;;;3.30;1.60;;;20.50;62.60;;;;;;4995898;28;20038;-62
2021/09/14 00:16:59;;;;;;;4.13;1.38;;;20.40;62.60;;;;;;4996075;28;20518;-62
2021/09/14 00:19:24;;;;;;;4.03;1.30;;;20.40;62.70;;;;;;4995489;28;20102;-62
2021/09/14 00:21:50;;;;;;;3.88;1.42;;;20.40;62.70;;;;;;4995459;28;20030;-62
2021/09/14 00:24:15;;;;;;;2.97;1.60;;;20.40;62.70;;;;;;4995836;28;20033;-62
2021/09/14 00:26:41;;;;;;;4.32;1.65;;;20.40;62.70;;;;;;4995813;28;20026;-62
2021/09/14 00:29:07;;;;;;;4.80;2.00;;;20.40;62.70;;;;;;4995756;28;20034;-62
2021/09/14 00:31:33;;;;;;;3.75;1.50;;;20.40;62.70;;;;;;4995732;28;20049;-62
2021/09/14 00:33:59;;;;;;;4.60;1.95;;;20.40;62.70;;;;;;4995513;28;20113;-62
2021/09/14 00:36:24;;;;;;;3.28;1.45;;;20.40;62.70;;;;;;4995641;28;20057;-63
2021/09/14 00:38:50;;;;;;;3.88;1.70;;;20.40;62.70;;;;;;4995820;28;20030;-62
2021/09/14 00:41:15;;;;;;;4.25;1.75;;;20.40;62.70;;;;;;4995579;28;20462;-62
2021/09/14 00:43:41;;;;;;;3.95;2.00;;;20.40;62.80;;;;;;4995487;28;20096;-63
2021/09/14 00:46:07;;;;;;;4.10;1.63;;;20.30;62.80;;;;;;4995242;28;20034;-61
2021/09/14 00:48:32;;;;;;;4.15;1.85;;;20.40;62.80;;;;;;4994223;28;20057;-62
2021/09/14 00:50:58;;;;;;;4.45;1.65;;;20.30;62.80;;;;;;4995388;28;20030;-62
2021/09/14 00:53:26;;;;;;;5.10;1.90;;;20.30;62.80;;;;;;4993971;28;20077;-62
2021/09/14 00:55:52;;;;;;;4.80;1.73;;;20.30;62.80;;;;;;4994049;28;20030;-62
2021/09/14 00:58:18;;;;;;;2.95;1.60;;;20.30;62.80;;;;;;4995281;28;20069;-60
2021/09/14 01:00:43;;;;;;;5.70;1.95;;;20.30;62.80;;;;;;4995183;28;20026;-62
2021/09/14 01:03:10;;;;;;;4.20;2.00;;;20.30;62.90;;;;;;4995115;28;20026;-62
2021/09/14 01:05:35;;;;;;;4.93;1.73;;;20.30;62.90;;;;;;4995293;28;20069;-62
2021/09/14 01:08:02;;;;;;;3.45;1.83;;;20.30;62.90;;;;;;4995217;28;20421;-62
2021/09/14 01:10:29;;;;;;;3.90;1.45;;;20.30;62.90;;;;;;4994951;28;20030;-62
2021/09/14 01:12:54;;;;;;;3.60;1.52;;;20.30;62.90;;;;;;4995158;28;20061;-62
2021/09/14 01:15:20;;;;;;;3.78;1.98;;;20.30;62.90;;;;;;4994874;28;20023;-62
2021/09/14 01:17:46;;;;;;;4.90;1.73;;;20.20;62.90;;;;;;4993481;28;20036;-62
2021/09/14 01:20:12;;;;;;;4.28;1.75;;;20.20;62.90;;;;;;4993534;28;20166;-62
2021/09/14 01:22:38;;;;;;;5.68;2.10;;;20.20;63.00;;;;;;4994770;28;20473;-62
2021/09/14 01:25:18;;;;;;;5.70;1.85;;;20.30;63.00;;;;;;4994695;28;20018;-62
2021/09/14 01:27:44;;;;;;;3.50;1.50;;;20.20;63.00;;;;;;4994710;28;20022;-62
2021/09/14 01:30:12;;;;;;;4.28;1.80;;;20.20;63.00;;;;;;4994534;28;20363;-62
2021/09/14 01:32:39;;;;;;;3.10;1.50;;;20.20;63.00;;;;;;4992238;28;20039;-62
2021/09/14 01:35:16;;;;;;;4.93;1.58;;;20.20;63.10;;;;;;4994825;28;20039;-62
2021/09/14 01:37:41;;;;;;;3.05;1.50;;;20.20;63.00;;;;;;4994736;28;20470;-62
2021/09/14 01:40:08;;;;;;;4.50;1.65;;;20.20;63.10;;;;;;4994549;28;20042;-62
2021/09/14 01:42:34;;;;;;;5.22;1.65;;;20.20;63.00;;;;;;4994436;28;20041;-62
2021/09/14 01:44:59;;;;;;;4.07;1.70;;;20.20;63.00;;;;;;4994569;28;20121;-62
2021/09/14 01:47:25;;;;;;;5.30;2.30;;;20.20;63.10;;;;;;4992920;28;20489;-62
2021/09/14 01:49:50;;;;;;;3.83;1.90;;;20.10;63.10;;;;;;4994300;28;20022;-62
2021/09/14 01:52:16;;;;;;;4.00;1.60;;;20.10;63.10;;;;;;4994261;28;20355;-62
2021/09/14 01:54:42;;;;;;;3.50;1.50;;;20.20;63.10;;;;;;4994186;28;20504;-62
2021/09/14 01:57:09;;;;;;;3.50;1.83;;;20.10;63.10;;;;;;4994154;28;20109;-62
2021/09/14 01:59:35;;;;;;;3.30;1.70;;;20.10;63.10;;;;;;4994131;28;20028;-62
2021/09/14 02:04:39;;;;;;;3.78;1.90;;;20.10;63.10;;;;;;4994222;28;20026;-62
2021/09/14 02:45:03;;;;;;;4.28;1.70;;;20.00;63.30;;;;;;4993321;28;20441;-62
2021/09/14 02:58:44;;;;;;;4.32;2.17;;;20.00;63.40;;;;;;4993532;28;20040;-62
2021/09/14 03:01:12;;;;;;;4.25;1.73;;;20.00;63.40;;;;;;4993375;28;20539;-62
2021/09/14 03:03:41;;;;;;;3.65;1.60;;;20.00;63.50;;;;;;4993362;28;20027;-62
2021/09/14 03:06:07;;;;;;;4.05;1.60;;;20.00;63.50;;;;;;4991971;28;20026;-62
2021/09/14 03:08:35;;;;;;;4.82;1.90;;;20.00;63.40;;;;;;4993599;28;20150;-62
2021/09/14 03:11:08;;;;;;;4.50;1.90;;;20.00;63.40;;;;;;4993394;28;20034;-62
2021/09/14 03:13:35;;;;;;;4.90;2.42;;;19.90;63.40;;;;;;4993237;28;20026;-62
2021/09/14 03:16:00;;;;;;;3.78;1.80;;;20.00;63.50;;;;;;4993503;28;20027;-62
2021/09/14 03:18:26;;;;;;;4.30;1.70;;;20.00;63.50;;;;;;4993236;28;20026;-62
2021/09/14 03:20:51;;;;;;;5.07;2.15;;;19.90;63.50;;;;;;4993079;28;20528;-63
2021/09/14 03:23:17;;;;;;;3.65;1.95;;;19.90;63.50;;;;;;4993191;28;20478;-62
2021/09/14 03:25:42;;;;;;;4.10;1.73;;;19.90;63.40;;;;;;4993165;28;20028;-62
2021/09/14 03:28:08;;;;;;;4.95;2.03;;;19.90;63.50;;;;;;4993117;28;20119;-62
2021/09/14 03:30:34;;;;;;;3.17;1.60;;;19.90;63.50;;;;;;4993082;28;20042;-62
2021/09/14 03:33:01;;;;;;;4.03;1.75;;;19.90;63.50;;;;;;4991742;28;20029;-61
2021/09/14 03:35:27;;;;;;;5.20;2.00;;;19.90;63.50;;;;;;4993095;28;20018;-62
2021/09/14 03:37:53;;;;;;;4.10;1.90;;;19.90;63.50;;;;;;4993008;28;20485;-62
2021/09/14 03:40:18;;;;;;;4.32;1.90;;;19.90;63.50;;;;;;4993167;28;20106;-62
2021/09/14 03:42:44;;;;;;;5.20;1.88;;;19.90;63.60;;;;;;4992950;28;20023;-60
2021/09/14 03:45:10;;;;;;;3.17;1.67;;;19.90;63.50;;;;;;4992867;28;20450;-63
2021/09/14 03:47:36;;;;;;;6.68;2.17;;;19.90;63.50;;;;;;4992871;28;20494;-61
2021/09/14 03:50:02;;;;;;;3.58;1.58;;;19.90;63.60;;;;;;4992836;28;20076;-62
2021/09/14 03:52:28;;;;;;;5.38;2.10;;;19.90;63.50;;;;;;4992842;28;20030;-62
2021/09/14 03:54:53;;;;;;;4.25;1.98;;;19.90;63.50;;;;;;4993071;28;20129;-61
2021/09/14 03:57:19;;;;;;;4.28;1.88;;;19.80;63.60;;;;;;4995131;28;20027;-62
2021/09/14 03:59:44;;;;;;;3.08;1.70;;;19.80;63.70;;;;;;4996340;28;20035;-62
2021/09/14 04:02:18;;;;;;;3.80;1.83;;;19.80;63.60;;;;;;4996286;28;20034;-62
2021/09/14 04:07:23;;;;;;;5.60;2.20;;;19.90;63.60;;;;;;4996483;28;20035;-62
2021/09/14 04:09:52;;;;;;;4.53;1.85;;;19.80;63.60;;;;;;4996221;28;20434;-62
2021/09/14 04:12:18;;;;;;;3.60;1.60;;;19.80;63.70;;;;;;4996408;28;20041;-62
2021/09/14 04:14:43;;;;;;;4.22;1.70;;;19.80;63.60;;;;;;4995880;28;20129;-61
2021/09/14 04:17:10;;;;;;;3.40;1.70;;;19.70;63.70;;;;;;4996221;28;20027;-61
2021/09/14 04:19:36;;;;;;;3.00;1.58;;;19.70;63.70;;;;;;4996221;28;20076;-62
2021/09/14 04:22:01;;;;;;;3.92;1.80;;;19.80;63.70;;;;;;4994659;28;20490;-60
2021/09/14 04:24:27;;;;;;;4.38;1.73;;;19.80;63.70;;;;;;4996058;28;20042;-62
2021/09/14 04:26:53;;;;;;;4.75;2.05;;;19.70;63.70;;;;;;4996410;28;20101;-61
2021/09/14 04:29:18;;;;;;;4.28;2.10;;;19.80;63.70;;;;;;4995983;28;20053;-62
2021/09/14 04:31:44;;;;;;;4.72;2.17;;;19.80;63.70;;;;;;4995957;28;20072;-62
2021/09/14 04:34:09;;;;;;;5.72;1.90;;;19.70;63.70;;;;;;4995806;28;20035;-60
2021/09/14 04:36:35;;;;;;;4.80;1.83;;;19.70;63.70;;;;;;4995704;28;20430;-61
2021/09/14 04:39:00;;;;;;;4.13;2.20;;;19.70;63.70;;;;;;4995628;28;20027;-61
2021/09/14 04:41:26;;;;;;;5.32;1.90;;;19.70;63.70;;;;;;4994370;28;20061;-61
2021/09/14 04:43:51;;;;;;;4.35;2.03;;;19.70;63.70;;;;;;4995546;28;20385;-61
2021/09/14 04:46:17;;;;;;;3.78;1.80;;;19.70;63.80;;;;;;4995527;28;20409;-61
2021/09/14 04:48:42;;;;;;;4.22;1.90;;;19.70;63.70;;;;;;4995715;28;20069;-61
2021/09/14 04:51:08;;;;;;;3.63;1.50;;;19.70;63.80;;;;;;4994079;28;20124;-62
2021/09/14 04:53:33;;;;;;;4.53;1.80;;;19.70;63.80;;;;;;4995486;28;20089;-62
2021/09/14 04:55:59;;;;;;;5.13;1.92;;;19.70;63.80;;;;;;4995601;28;20522;-61
2021/09/14 04:58:24;;;;;;;4.70;1.90;;;19.70;63.80;;;;;;4995220;28;20026;-61
2021/09/14 05:00:50;;;;;;;4.70;2.15;;;19.70;63.80;;;;;;4993904;28;20032;-61
2021/09/14 05:03:16;;;;;;;4.25;2.00;;;19.70;63.80;;;;;;4993775;28;20374;-62
2021/09/14 05:05:41;;;;;;;3.75;1.67;;;19.70;63.80;;;;;;4994988;28;20026;-62
2021/09/14 05:08:07;;;;;;;4.68;1.83;;;19.70;63.80;;;;;;4995358;28;20129;-61
2021/09/14 05:10:33;;;;;;;5.07;2.10;;;19.70;63.80;;;;;;4995078;28;20030;-62
2021/09/14 05:13:00;;;;;;;3.95;1.70;;;19.60;63.90;;;;;;4993738;28;20026;-62
2021/09/14 05:15:26;;;;;;;4.53;2.10;;;19.60;63.90;;;;;;4994921;28;20381;-61
2021/09/14 05:17:51;;;;;;;4.80;1.88;;;19.60;63.90;;;;;;4994904;28;20022;-62
2021/09/14 05:20:17;;;;;;;5.90;1.90;;;19.60;63.80;;;;;;4993575;28;20046;-62
2021/09/14 05:22:42;;;;;;;3.45;1.80;;;19.60;63.80;;;;;;4994833;28;20037;-62
2021/09/14 05:25:08;;;;;;;4.50;2.00;;;19.60;63.80;;;;;;4993595;28;20042;-62
2021/09/14 05:27:34;;;;;;;5.25;2.17;;;19.60;63.90;;;;;;4995239;28;20484;-62
2021/09/14 05:30:00;;;;;;;4.00;2.08;;;19.60;63.90;;;;;;4994909;28;20027;-62
2021/09/14 05:32:27;;;;;;;4.68;1.90;;;19.60;63.90;;;;;;4994680;28;20034;-62
2021/09/14 05:34:53;;;;;;;5.38;2.00;;;19.60;63.90;;;;;;4994552;28;20035;-61
2021/09/14 05:37:20;;;;;;;5.30;2.00;;;19.60;63.80;;;;;;4993395;28;20023;-60
2021/09/14 05:39:45;;;;;;;4.00;1.85;;;19.60;63.90;;;;;;4994436;28;20474;-61
2021/09/14 05:42:11;;;;;;;4.10;1.80;;;19.60;63.80;;;;;;4994853;28;20023;-61
2021/09/14 05:44:37;;;;;;;3.70;1.88;;;19.60;63.80;;;;;;4993207;28;20037;-61
2021/09/14 05:47:03;;;;;;;3.95;2.10;;;19.60;63.80;;;;;;4994191;28;20056;-61
2021/09/14 05:49:29;;;;;;;4.38;1.80;;;19.60;63.80;;;;;;4994399;28;20445;-62
2021/09/14 05:51:54;;;;;;;3.75;1.85;;;19.60;63.80;;;;;;4994534;28;20018;-62
2021/09/14 05:54:20;;;;;;;4.28;1.80;;;19.60;63.80;;;;;;4994231;28;20109;-62
2021/09/14 05:56:46;;;;;;;4.18;1.88;;;19.60;63.80;;;;;;4994464;28;20018;-61
2021/09/14 05:59:11;;;;;;;3.83;1.92;;;19.60;63.80;;;;;;4994035;28;20109;-61
2021/09/14 06:01:37;;;;;;;3.88;1.90;;;19.60;63.80;;;;;;4992746;28;20117;-60
2021/09/14 06:04:02;;;;;;;5.35;1.85;;;19.60;63.70;;;;;;4993995;28;20032;-61
2021/09/14 06:06:28;;;;;;;5.82;2.00;;;19.60;63.80;;;;;;4993910;28;20070;-61
2021/09/14 06:08:53;;;;;;;3.85;1.77;;;19.60;63.80;;;;;;4993887;28;20030;-61
2021/09/14 06:11:19;;;;;;;4.68;2.13;;;19.60;63.80;;;;;;4993807;28;20051;-61
2021/09/14 06:13:45;;;;;;;4.78;2.10;;;19.60;63.70;;;;;;4994148;28;20460;-62
2021/09/14 06:16:11;;;;;;;3.67;1.95;;;19.60;63.70;;;;;;4994018;28;20026;-61
2021/09/14 06:18:36;;;;;;;5.60;1.95;;;19.70;63.70;;;;;;4993440;28;20052;-61
2021/09/14 06:21:02;;;;;;;4.45;2.00;;;19.60;63.70;;;;;;4993508;28;20038;-62
2021/09/14 06:23:28;;;;;;;4.18;1.80;;;19.60;63.70;;;;;;4992758;28;20081;-62
2021/09/14 06:25:53;;;;;;;5.65;1.92;;;19.60;63.70;;;;;;4996876;28;20030;-63
2021/09/14 06:28:19;;;;;;;4.97;2.22;;;19.60;63.80;;;;;;4992235;28;20023;-62
2021/09/14 06:30:44;;;;;;;3.50;1.73;;;19.60;63.70;;;;;;4993075;28;20367;-61
2021/09/14 06:33:10;;;;;;;8.60;3.13;;;19.60;63.70;;;;;;4985070;28;20378;-61
2021/09/14 06:35:35;;;;;;;5.93;2.17;;;19.70;63.70;;;;;;4993921;28;20038;-61
2021/09/14 06:38:03;;;;;;;4.93;2.10;;;19.70;63.60;;;;;;5003381;28;20644;-61
2021/09/14 06:40:28;;;;;;;6.97;2.28;;;19.70;63.60;;;;;;5009302;28;20037;-61
2021/09/14 06:42:54;;;;;;;5.20;1.85;;;19.70;63.70;;;;;;4996319;28;20465;-60
2021/09/14 06:45:20;;;;;;;6.28;1.80;;;19.70;63.70;;;;;;5011763;28;20072;-61
2021/09/14 06:47:45;;;;;;;5.88;2.08;;;19.70;63.70;;;;;;5011724;28;20053;-60
2021/09/14 06:50:11;;;;;;;4.20;1.85;;;19.70;63.70;;;;;;5002264;28;20030;-61
2021/09/14 06:52:38;;;;;;;3.97;1.80;;;19.70;63.70;;;;;;4997355;28;20061;-61
2021/09/14 06:55:06;;;;;;;3.70;1.75;;;19.70;63.60;;;;;;5006748;28;20428;-59
2021/09/14 06:57:32;;;;;;;4.03;1.80;;;19.80;63.60;;;;;;5011505;28;20026;-59
2021/09/14 06:59:57;;;;;;;6.18;2.25;;;19.80;63.50;;;;;;5010711;28;20026;-60
2021/09/14 07:02:23;;;;;;;3.83;1.80;;;19.80;63.40;;;;;;5006580;28;20483;-59
2021/09/14 07:04:49;;;;;;;21.63;2.30;;;19.80;63.40;;;;;;5009114;28;20034;-59
2021/09/14 07:07:14;;;;;;;6.25;1.92;;;19.80;63.40;;;;;;5012187;28;20469;-60
2021/09/14 07:09:40;;;;;;;4.80;2.00;;;19.90;63.30;;;;;;5006753;28;20032;-59
2021/09/14 07:12:06;;;;;;;3.92;1.80;;;19.90;63.20;;;;;;4988996;28;20029;-60
2021/09/14 07:14:32;;;;;;;4.20;2.00;;;20.00;63.20;;;;;;4987246;28;20035;-59
2021/09/14 07:16:57;;;;;;;3.42;1.70;;;20.00;63.20;;;;;;4992413;28;20026;-60
2021/09/14 07:19:23;;;;;;;4.15;1.85;;;20.00;63.10;;;;;;4992395;28;20026;-60
2021/09/14 07:21:48;;;;;;;3.47;2.00;;;20.00;63.10;;;;;;4988938;28;20033;-60
2021/09/14 07:24:14;;;;;;;5.35;1.90;;;20.00;63.10;;;;;;4987076;28;20493;-61
2021/09/14 07:26:39;;;;;;;4.97;2.05;;;20.00;63.10;;;;;;4991999;28;20492;-61
2021/09/14 07:29:06;;;;;;;4.38;1.95;;;20.00;63.00;;;;;;4993185;28;20042;-61
2021/09/14 07:31:33;;;;;;;5.78;2.20;;;20.00;63.00;;;;;;4995198;28;20104;-60
2021/09/14 07:33:59;;;;;;;11.13;2.42;;;20.00;63.10;;;;;;4988059;28;20408;-60
2021/09/14 07:36:25;;;;;;;3.78;1.98;;;20.00;63.00;;;;;;4995591;28;20041;-60
2021/09/14 07:38:50;;;;;;;5.60;2.13;;;20.10;63.00;;;;;;4998862;28;20034;-60
2021/09/14 07:41:16;;;;;;;4.10;1.92;;;20.10;62.90;;;;;;5013171;28;20028;-60
2021/09/14 07:43:42;;;;;;;4.50;1.98;;;20.10;63.00;;;;;;5006596;28;20030;-60
2021/09/14 07:46:09;;;;;;;3.38;1.95;;;20.10;62.90;;;;;;5014887;28;20080;-61
2021/09/14 07:48:36;;;;;;;3.83;1.80;;;20.10;62.90;;;;;;5015357;28;20040;-61
2021/09/14 07:51:02;;;;;;;3.45;1.88;;;20.10;62.90;;;;;;5015182;28;20037;-60
2021/09/14 07:53:28;;;;;;;3.88;2.00;;;20.10;62.90;;;;;;5006075;28;20056;-61
2021/09/14 07:55:53;;;;;;;4.18;2.00;;;20.20;62.80;;;;;;5013815;28;20025;-61
2021/09/14 07:58:19;;;;;;;4.15;2.15;;;20.20;62.90;;;;;;5013975;28;20018;-61
2021/09/14 08:00:44;;;;;;;6.13;2.13;;;20.20;62.80;;;;;;5014706;28;20386;-60
2021/09/14 08:03:11;;;;;;;8.30;2.70;;;20.20;62.80;;;;;;5004467;28;20033;-60
2021/09/14 08:05:39;;;;;;;5.10;2.05;;;20.20;62.80;;;;;;5014789;28;20508;-62
2021/09/14 08:08:06;;;;;;;4.88;1.98;;;20.20;62.70;;;;;;5014840;28;20417;-60
2021/09/14 08:10:31;;;;;;;3.38;1.88;;;20.20;62.70;;;;;;5013964;28;20076;-61
2021/09/14 08:12:57;;;;;;;6.00;2.28;;;20.20;62.60;;;;;;4992863;28;20030;-60
2021/09/14 08:15:22;;;;;;;4.07;2.20;;;20.30;62.70;;;;;;4993087;28;20208;-60
2021/09/14 08:17:48;;;;;;;9.88;2.28;;;20.20;62.70;;;;;;4995142;28;20520;-61
2021/09/14 08:20:15;;;;;;;4.88;2.20;;;20.30;62.60;;;;;;4995288;28;20457;-62
2021/09/14 08:22:41;;;;;;;3.67;2.08;;;20.20;62.70;;;;;;4986646;28;20528;-61
2021/09/14 08:25:07;;;;;;;4.38;2.03;;;20.30;62.70;;;;;;5000038;28;20034;-62
2021/09/14 08:27:33;;;;;;;4.00;2.10;;;20.20;62.60;;;;;;4998957;28;20054;-61
2021/09/14 08:29:59;;;;;;;4.57;2.30;;;20.30;62.60;;;;;;4994727;28;20031;-60
2021/09/14 08:32:24;;;;;;;4.45;2.08;;;20.30;62.60;;;;;;4989189;28;20117;-61
2021/09/14 08:34:50;;;;;;;13.25;2.33;;;20.30;62.60;;;;;;4995195;28;20041;-60
2021/09/14 08:37:15;;;;;;;4.45;2.25;;;20.30;62.50;;;;;;5008143;28;20029;-61
2021/09/14 08:39:41;;;;;;;4.15;2.15;;;20.30;62.60;;;;;;5014213;28;20148;-62
2021/09/14 08:42:07;;;;;;;3.60;2.00;;;20.40;62.60;;;;;;5008432;28;20037;-61
2021/09/14 08:44:36;;;;;;;3.53;1.95;;;20.40;62.60;;;;;;5009974;28;20030;-60
2021/09/14 08:47:03;;;;;;;5.90;1.92;;;20.40;62.60;;;;;;5014005;28;20049;-61
2021/09/14 08:49:29;;;;;;;5.18;1.90;;;20.40;62.70;;;;;;5014373;28;20030;-61
2021/09/14 08:51:55;;;;;;;3.92;2.00;;;20.40;62.70;;;;;;5006564;28;20045;-60
2021/09/14 08:54:21;;;;;;;3.50;1.88;;;20.40;62.70;;;;;;4994225;28;20384;-60
2021/09/14 08:56:47;;;;;;;3.10;1.90;;;20.40;62.70;;;;;;4994306;28;20081;-61
2021/09/14 08:59:28;;;;;;;4.32;1.90;;;20.40;62.80;;;;;;4994430;28;20417;-61
2021/09/14 09:02:02;;;;;;;5.75;2.38;;;20.40;62.80;;;;;;4991050;28;20050;-62
2021/09/14 09:04:28;;;;;;;4.72;1.90;;;20.40;62.80;;;;;;4989040;28;20084;-61
2021/09/14 09:06:54;;;;;;;3.95;1.80;;;20.40;62.70;;;;;;4994205;28;20038;-61
2021/09/14 09:09:23;;;;;;;5.32;2.17;;;20.40;62.70;;;;;;4993053;28;20066;-60
2021/09/14 09:12:07;;;;;;;6.32;2.33;;;20.50;62.70;;;;;;4990547;28;20117;-60
2021/09/14 09:14:37;;;;;;;4.25;1.90;;;20.40;62.70;;;;;;4989537;28;20125;-61
2021/09/14 09:17:08;;;;;;;4.38;2.05;;;20.40;62.70;;;;;;4998781;28;20057;-60
2021/09/14 09:19:34;;;;;;;5.43;2.25;;;20.50;62.70;;;;;;5013154;28;20034;-60
2021/09/14 09:21:59;;;;;;;5.00;2.20;;;20.50;62.60;;;;;;4998135;28;20508;-61
2021/09/14 09:24:25;;;;;;;4.10;2.15;;;20.50;62.70;;;;;;4988121;28;20036;-60
2021/09/14 09:26:51;;;;;;;4.90;2.38;;;20.50;62.70;;;;;;4994070;28;20085;-60
2021/09/14 09:29:24;;;;;;;5.70;2.67;;;20.50;62.70;;;;;;4993626;28;20042;-61
2021/09/14 09:31:52;;;;;;;4.63;2.43;;;20.50;62.60;;;;;;4990356;28;20077;-61
2021/09/14 09:34:27;;;;;;;4.15;1.88;;;20.50;62.60;;;;;;4988198;28;20294;-61
2021/09/14 09:37:07;;;;;;;4.22;2.08;;;20.60;62.70;;;;;;4993613;28;20018;-60
2021/09/14 09:39:45;;;;;;;4.15;2.08;;;20.50;62.60;;;;;;5000721;28;20038;-61
2021/09/14 09:42:12;;;;;;;4.82;2.25;;;20.60;62.70;;;;;;5007110;28;20430;-61
2021/09/14 09:44:51;;;;;;;4.07;2.08;;;20.50;62.60;;;;;;5008888;28;20030;-60
2021/09/14 09:47:18;;;;;;;4.72;2.45;;;20.60;62.70;;;;;;5012864;28;20050;-60
2021/09/14 09:49:47;;;;;;;4.82;2.22;;;20.60;62.60;;;;;;5012928;28;20030;-59
2021/09/14 09:52:12;;;;;;;4.35;2.50;;;20.70;62.60;;;;;;5009208;28;20030;-61
2021/09/14 09:54:38;;;;;;;5.15;2.40;;;20.70;62.50;;;;;;5007050;28;20370;-60
2021/09/14 09:57:07;;;;;;;6.30;2.40;;;20.70;62.50;;;;;;5012581;28;20109;-62
2021/09/14 09:59:32;;;;;;;6.65;2.50;;;20.70;62.60;;;;;;5011032;28;20030;-62
2021/09/14 10:02:29;;;;;;;4.88;2.33;;;20.70;62.40;;;;;;5008971;28;20030;-59
2021/09/14 10:05:05;;;;;;;4.20;2.03;;;20.70;62.50;;;;;;5005016;28;20588;-61
2021/09/14 10:07:32;;;;;;;9.10;2.08;;;20.80;62.30;;;;;;5012480;28;20036;-60
2021/09/14 10:10:01;;;;;;;5.68;2.10;;;20.90;62.30;;;;;;5012566;28;20100;-60
2021/09/14 10:12:26;;;;;;;5.68;2.40;;;20.90;62.20;;;;;;5000042;28;20045;-60
2021/09/14 10:14:57;;;;;;;4.88;2.20;;;20.90;62.30;;;;;;5009556;28;20037;-61
2021/09/14 10:17:22;;;;;;;4.78;2.42;;;20.90;62.20;;;;;;5011024;28;20527;-60
2021/09/14 10:19:48;;;;;;;4.43;2.05;;;20.90;62.10;;;;;;5002318;28;20030;-60
2021/09/14 10:22:25;;;;;;;5.13;2.20;;;20.90;62.10;;;;;;4987046;28;20473;-61
2021/09/14 10:24:56;;;;;;;4.13;2.20;;;20.90;62.10;;;;;;4989589;28;20461;-61
2021/09/14 10:27:22;;;;;;;6.47;2.45;;;21.00;62.10;;;;;;4991991;28;20026;-61
2021/09/14 10:30:07;;;;;;;4.22;2.15;;;21.00;62.10;;;;;;4992047;28;20355;-61
2021/09/14 10:32:40;;;;;;;4.43;2.53;;;21.00;62.00;;;;;;4984974;28;20022;-62
2021/09/14 10:35:08;;;;;;;7.38;2.60;;;21.00;61.90;;;;;;4986504;28;20038;-61
2021/09/14 10:37:36;;;;;;;5.60;2.13;;;21.10;61.90;;;;;;4990672;28;20126;-60
2021/09/14 10:40:09;;;;;;;4.38;2.40;;;21.10;61.80;;;;;;4991522;28;20085;-60
2021/09/14 10:42:38;;;;;;;3.65;2.03;;;21.10;61.70;;;;;;4989817;28;20092;-61
2021/09/14 10:45:16;;;;;;;3.95;2.00;;;21.20;61.60;;;;;;4994335;28;20031;-60
2021/09/14 10:47:50;;;;;;;5.13;2.30;;;21.20;61.60;;;;;;5011626;28;20049;-62
2021/09/14 10:50:28;;;;;;;3.83;2.15;;;21.20;61.60;;;;;;5010933;28;20026;-60
2021/09/14 10:52:59;;;;;;;3.83;2.33;;;21.20;61.70;;;;;;4997143;28;20072;-61
2021/09/14 10:55:26;;;;;;;5.90;2.25;;;21.20;61.70;;;;;;5011654;28;20030;-61
2021/09/14 10:57:59;;;;;;;5.22;2.50;;;21.30;61.60;;;;;;5011742;28;20061;-61
2021/09/14 11:00:33;;;;;;;4.97;2.20;;;21.30;61.50;;;;;;5011861;28;20072;-60
2021/09/14 11:03:02;;;;;;;5.65;2.40;;;21.40;61.40;;;;;;4983671;28;20088;-61
2021/09/14 11:05:29;;;;;;;6.60;2.17;;;21.40;61.40;;;;;;4993755;28;20034;-61
2021/09/14 11:07:59;;;;;;;3.65;1.73;;;21.40;61.30;;;;;;4996161;28;20089;-61
2021/09/14 11:10:30;;;;;;;3.50;2.00;;;21.50;61.30;;;;;;5004675;28;20034;-61
2021/09/14 11:12:56;;;;;;;3.70;2.20;;;21.50;61.20;;;;;;4998831;28;20372;-60
2021/09/14 11:15:22;;;;;;;4.35;2.20;;;21.60;61.20;;;;;;4995712;28;20046;-61
2021/09/14 11:17:48;;;;;;;5.30;2.22;;;21.60;61.00;;;;;;4994815;28;20019;-61
2021/09/14 11:20:20;;;;;;;4.25;2.20;;;21.60;61.10;;;;;;4995960;28;20473;-61
2021/09/14 11:22:48;;;;;;;3.35;2.00;;;21.60;61.00;;;;;;4981581;28;20029;-60
2021/09/14 11:25:16;;;;;;;4.00;1.92;;;21.70;61.00;;;;;;4995215;28;20027;-62
2021/09/14 11:27:56;;;;;;;4.88;2.33;;;21.80;60.80;;;;;;5011471;28;20030;-61
2021/09/14 11:30:22;;;;;;;4.60;2.17;;;21.90;60.60;;;;;;5001479;28;20541;-61
2021/09/14 11:32:49;;;;;;;4.60;2.42;;;22.00;60.40;;;;;;5005428;28;20102;-61
2021/09/14 11:35:15;;;;;;;3.72;2.00;;;22.00;60.40;;;;;;5002525;28;20035;-61
2021/09/14 11:37:41;;;;;;;4.63;1.90;;;22.00;60.40;;;;;;5012149;28;20026;-61
2021/09/14 11:40:20;;;;;;;5.32;2.15;;;22.10;60.30;;;;;;5015193;28;20488;-60
2021/09/14 11:42:59;;;;;;;3.97;1.70;;;22.10;60.20;;;;;;4995705;28;20032;-60
2021/09/14 11:45:26;;;;;;;4.85;1.92;;;22.10;60.20;;;;;;4995298;28;20041;-62
2021/09/14 11:47:54;;;;;;;4.72;2.15;;;22.10;60.20;;;;;;5006997;28;20038;-61
2021/09/14 11:50:28;;;;;;;4.85;2.42;;;22.20;60.20;;;;;;5014990;28;20492;-61
2021/09/14 11:53:08;;;;;;;3.83;1.92;;;22.20;60.20;;;;;;5000739;28;20022;-62
2021/09/14 11:55:39;;;;;;;4.22;1.98;;;22.30;60.10;;;;;;5014961;28;20034;-61
2021/09/14 11:58:04;;;;;;;4.55;2.30;;;22.30;60.00;;;;;;5014855;28;20466;-60
2021/09/14 12:00:46;;;;;;;6.93;1.95;;;22.40;59.90;;;;;;5014558;28;20036;-61
2021/09/14 12:03:21;;;;;;;3.53;1.98;;;22.50;59.80;;;;;;5014838;28;20025;-62
2021/09/14 12:05:57;;;;;;;4.60;2.33;;;22.50;59.70;;;;;;5012467;28;20563;-61
2021/09/14 12:08:39;;;;;;;6.20;2.42;;;22.50;59.60;;;;;;5014651;28;20033;-62
2021/09/14 12:11:05;;;;;;;4.07;2.10;;;22.60;59.40;;;;;;5014776;28;20373;-62
2021/09/14 12:13:38;;;;;;;3.92;2.00;;;22.60;59.50;;;;;;5000758;28;20041;-62
2021/09/14 12:16:25;;;;;;;4.47;2.10;;;22.60;59.50;;;;;;4994222;28;20026;-61
2021/09/14 12:18:51;;;;;;;5.25;2.03;;;22.60;59.70;;;;;;4997087;28;21439;-62
2021/09/14 12:21:16;;;;;;;3.10;1.85;;;22.60;59.80;;;;;;4992969;28;20089;-62
2021/09/14 12:23:42;;;;;;;4.15;1.92;;;22.60;59.80;;;;;;4992861;28;20022;-62
2021/09/14 12:26:21;;;;;;;4.32;1.98;;;22.50;59.90;;;;;;4992745;28;20028;-61
2021/09/14 12:28:49;;;;;;;3.88;1.85;;;22.50;60.00;;;;;;4992882;28;20022;-62
2021/09/14 12:31:16;;;;;;;3.15;1.90;;;22.60;59.80;;;;;;4992846;28;20034;-62
2021/09/14 12:33:41;;;;;;;4.00;2.10;;;22.70;59.70;;;;;;4994244;28;20022;-62
2021/09/14 12:36:09;;;;;;;4.22;2.00;;;22.70;59.70;;;;;;4994713;28;20432;-64
2021/09/14 12:38:34;;;;;;;5.80;2.20;;;22.80;59.50;;;;;;4995152;28;20022;-62
2021/09/14 12:41:00;;;;;;;3.50;2.00;;;22.80;59.40;;;;;;4993879;28;20030;-62
2021/09/14 12:43:26;;;;;;;3.80;2.03;;;22.80;59.30;;;;;;4994182;28;20026;-61
2021/09/14 12:45:51;;;;;;;3.28;1.83;;;22.80;59.50;;;;;;4993505;28;20098;-61
2021/09/14 12:48:17;;;;;;;4.20;1.98;;;22.90;59.40;;;;;;4994700;28;20453;-62
2021/09/14 12:50:42;;;;;;;3.50;1.65;;;22.90;59.20;;;;;;4995509;28;20181;-62
2021/09/14 12:53:08;;;;;;;6.13;1.98;;;22.90;59.30;;;;;;4995414;28;20104;-61
2021/09/14 12:55:36;;;;;;;5.53;1.88;;;22.90;59.40;;;;;;4995374;28;20084;-61
2021/09/14 12:58:06;;;;;;;5.47;2.10;;;22.80;59.60;;;;;;4994091;28;20022;-62
2021/09/14 13:00:33;;;;;;;3.63;1.88;;;22.70;59.80;;;;;;4994018;28;20058;-62
2021/09/14 13:02:59;;;;;;;2.88;1.70;;;22.70;60.00;;;;;;4995212;28;20022;-61
2021/09/14 13:05:30;;;;;;;4.30;1.92;;;22.70;60.00;;;;;;4995081;28;20085;-62
2021/09/14 13:07:56;;;;;;;3.55;1.83;;;22.80;59.90;;;;;;4995032;28;20418;-61
2021/09/14 13:10:23;;;;;;;4.55;2.10;;;22.70;59.90;;;;;;4995084;28;20402;-62
2021/09/14 13:12:51;;;;;;;2.95;1.50;;;22.70;60.00;;;;;;4994944;28;20022;-62
2021/09/14 13:18:02;;;;;;;4.32;1.90;;;22.70;60.10;;;;;;4995237;28;20061;-61
2021/09/14 13:20:28;;;;;;;4.90;1.90;;;22.70;60.10;;;;;;4995315;28;20038;-61
2021/09/14 13:22:54;;;;;;;3.35;1.63;;;22.70;60.10;;;;;;4993490;28;20041;-61
2021/09/14 13:25:24;;;;;;;3.50;1.80;;;22.60;60.20;;;;;;4994722;28;20038;-62
2021/09/14 13:27:49;;;;;;;5.13;2.10;;;22.60;60.30;;;;;;4994588;28;20482;-62
2021/09/14 13:30:15;;;;;;;3.63;1.90;;;22.60;60.40;;;;;;4993351;28;20068;-61
2021/09/14 13:32:40;;;;;;;3.72;2.13;;;22.50;60.50;;;;;;4994732;28;20073;-61
2021/09/14 13:35:07;;;;;;;3.53;2.20;;;22.50;60.60;;;;;;4993372;28;20048;-62
2021/09/14 13:37:33;;;;;;;3.13;1.52;;;22.50;60.60;;;;;;4993208;28;20486;-61
2021/09/14 13:39:59;;;;;;;5.55;1.83;;;22.50;60.70;;;;;;4994456;28;20041;-61
2021/09/14 13:42:25;;;;;;;3.35;1.77;;;22.50;60.70;;;;;;4993199;28;20022;-62
2021/09/14 13:47:20;;;;;;;3.35;1.75;;;22.50;60.80;;;;;;4994197;28;20073;-61